createdAt,value
2023-04-13T00:01:33.157Z,6.23
2023-04-13T00:04:04.139Z,4.10
2023-04-13T00:06:31.901Z,5.60
2023-04-13T00:09:01.215Z,3.83
2023-04-13T00:11:29.761Z,3.43
2023-04-13T00:13:59.128Z,3.37
2023-04-13T00:16:29.188Z,3.13
2023-04-13T00:18:56.760Z,2.57
2023-04-13T00:21:26.053Z,3.17
2023-04-13T00:23:53.796Z,2.87
2023-04-13T00:26:22.296Z,3.20
2023-04-13T00:28:49.904Z,3.00
2023-04-13T00:31:17.502Z,3.90
2023-04-13T00:33:45.013Z,3.80
2023-04-13T00:36:12.616Z,3.43
2023-04-13T00:38:42.025Z,3.50
2023-04-13T00:41:13.320Z,6.57
2023-04-13T00:43:40.782Z,2.73
2023-04-13T00:46:09.573Z,2.73
2023-04-13T00:48:37.239Z,4.07
2023-04-13T00:51:05.880Z,3.33
2023-04-13T00:53:33.930Z,3.93
2023-04-13T00:56:04.242Z,3.17
2023-04-13T00:58:32.493Z,2.70
2023-04-13T01:01:00.010Z,3.57
2023-04-13T01:03:27.657Z,2.80
2023-04-13T01:06:22.969Z,2.40
2023-04-13T01:09:03.105Z,2.90
2023-04-13T01:11:42.848Z,3.87
2023-04-13T01:14:22.388Z,5.90
2023-04-13T01:16:57.858Z,3.40
2023-04-13T01:19:51.841Z,3.20
2023-04-13T01:22:22.794Z,3.70
2023-04-13T01:25:26.140Z,3.50
2023-04-13T01:28:12.840Z,4.20
2023-04-13T01:30:41.433Z,4.80
2023-04-13T01:33:10.658Z,4.17
2023-04-13T01:35:39.290Z,7.20
2023-04-13T01:38:07.816Z,5.17
2023-04-13T01:40:37.470Z,4.67
2023-04-13T01:43:04.990Z,5.10
2023-04-13T01:45:53.874Z,4.27
2023-04-13T01:48:30.173Z,4.70
2023-04-13T01:51:17.066Z,4.80
2023-04-13T01:53:51.372Z,5.40
2023-04-13T01:56:20.319Z,6.47
2023-04-13T01:58:50.449Z,6.83
2023-04-13T02:01:18.298Z,7.33
2023-04-13T02:03:46.362Z,8.20
2023-04-13T02:06:14.166Z,7.40
2023-04-13T02:08:42.306Z,14.27
2023-04-13T02:11:12.900Z,10.50
2023-04-13T02:13:40.418Z,13.07
2023-04-13T02:16:09.376Z,8.63
2023-04-13T02:18:37.487Z,10.07
2023-04-13T02:21:11.498Z,12.70
2023-04-13T02:23:41.543Z,8.50
2023-04-13T02:26:10.058Z,10.30
2023-04-13T02:28:37.613Z,9.57
2023-04-13T02:31:06.129Z,9.87
2023-04-13T02:33:34.663Z,9.20
2023-04-13T02:36:04.306Z,10.73
2023-04-13T02:38:32.353Z,12.57
2023-04-13T02:41:01.287Z,11.27
2023-04-13T02:43:31.985Z,10.07
2023-04-13T02:45:59.835Z,10.27
2023-04-13T02:48:27.478Z,10.00
2023-04-13T02:50:55.051Z,13.47
2023-04-13T02:53:22.605Z,10.23
2023-04-13T02:55:53.890Z,12.77
2023-04-13T02:58:21.575Z,9.10
2023-04-13T03:00:49.414Z,10.73
2023-04-13T03:03:17.343Z,12.30
2023-04-13T03:05:44.918Z,10.60
2023-04-13T03:08:12.491Z,8.87
2023-04-13T03:10:40.038Z,7.93
2023-04-13T03:13:07.832Z,9.67
2023-04-13T03:15:35.374Z,10.60
2023-04-13T03:18:04.404Z,12.83
2023-04-13T03:20:31.957Z,8.10
2023-04-13T03:22:59.574Z,7.40
2023-04-13T03:25:27.153Z,7.90
2023-04-13T03:27:54.692Z,17.00
2023-04-13T03:30:22.448Z,8.53
2023-04-13T03:32:50.127Z,10.97
2023-04-13T03:35:17.745Z,10.70
2023-04-13T03:37:45.198Z,11.80
2023-04-13T03:40:13.013Z,10.77
2023-04-13T03:42:40.644Z,11.40
2023-04-13T03:45:08.669Z,9.70
2023-04-13T03:47:36.337Z,11.37
2023-04-13T03:50:04.081Z,12.60
2023-04-13T03:52:32.260Z,12.20
2023-04-13T03:54:59.928Z,12.87
2023-04-13T03:57:27.731Z,15.00
2023-04-13T03:59:55.240Z,11.20
2023-04-13T04:02:22.913Z,13.03
2023-04-13T04:04:51.323Z,12.20
2023-04-13T04:07:23.283Z,11.63
2023-04-13T04:09:51.116Z,15.47
2023-04-13T04:12:18.699Z,17.53
2023-04-13T04:14:46.196Z,14.00
2023-04-13T04:17:13.657Z,15.07
2023-04-13T04:19:41.300Z,15.53
2023-04-13T04:22:09.488Z,18.37
2023-04-13T04:24:37.000Z,17.83
2023-04-13T04:27:06.140Z,15.60
2023-04-13T04:29:36.248Z,12.40
2023-04-13T04:32:05.878Z,11.73
2023-04-13T04:34:33.550Z,16.63
2023-04-13T04:37:10.905Z,13.30
2023-04-13T04:39:46.231Z,11.27
2023-04-13T04:42:14.765Z,14.77
2023-04-13T04:44:44.826Z,15.20
2023-04-13T04:47:17.171Z,19.63
2023-04-13T04:49:44.614Z,16.30
2023-04-13T04:52:12.793Z,14.07
2023-04-13T04:54:40.652Z,18.10
2023-04-13T04:57:10.751Z,14.50
2023-04-13T04:59:39.077Z,19.67
2023-04-13T05:02:08.348Z,19.03
2023-04-13T05:04:36.100Z,18.63
2023-04-13T05:07:03.575Z,16.20
2023-04-13T05:09:32.108Z,16.50
2023-04-13T05:11:59.559Z,16.57
2023-04-13T05:14:27.070Z,16.70
2023-04-13T05:16:54.785Z,18.00
2023-04-13T05:19:22.345Z,20.13
2023-04-13T05:21:49.938Z,14.20
2023-04-13T05:24:17.437Z,14.83
2023-04-13T05:26:45.135Z,20.17
2023-04-13T05:29:12.975Z,12.97
2023-04-13T05:31:40.770Z,17.40
2023-04-13T05:34:08.274Z,16.50
2023-04-13T05:36:35.796Z,18.77
2023-04-13T05:39:03.343Z,15.20
2023-04-13T05:41:31.127Z,16.03
2023-04-13T05:43:58.623Z,19.60
2023-04-13T05:46:26.492Z,20.20
2023-04-13T05:48:54.019Z,16.97
2023-04-13T05:51:21.847Z,16.40
2023-04-13T05:53:49.356Z,14.20
2023-04-13T05:56:16.958Z,15.57
2023-04-13T05:58:44.713Z,13.67
2023-04-13T06:01:13.020Z,15.37
2023-04-13T06:03:40.870Z,17.80
2023-04-13T06:06:09.018Z,13.73
2023-04-13T06:08:36.526Z,10.87
2023-04-13T06:11:04.166Z,14.17
2023-04-13T06:13:32.065Z,11.70
2023-04-13T06:16:00.072Z,13.07
2023-04-13T06:18:28.305Z,17.03
2023-04-13T06:20:57.446Z,13.80
2023-04-13T06:23:24.993Z,13.53
2023-04-13T06:25:52.561Z,12.37
2023-04-13T06:28:20.076Z,15.30
2023-04-13T06:30:47.730Z,12.23
2023-04-13T06:33:15.778Z,12.27
2023-04-13T06:35:43.385Z,13.67
2023-04-13T06:38:12.502Z,12.00
2023-04-13T06:40:40.250Z,14.00
2023-04-13T06:43:11.167Z,11.33
2023-04-13T06:45:43.657Z,12.43
2023-04-13T06:48:11.800Z,12.00
2023-04-13T06:50:39.463Z,12.07
2023-04-13T06:53:06.967Z,13.97
2023-04-13T06:55:34.560Z,18.43
2023-04-13T06:58:02.068Z,17.67
2023-04-13T07:00:30.587Z,14.57
2023-04-13T07:02:58.905Z,12.43
2023-04-13T07:05:26.900Z,9.67
2023-04-13T07:07:54.397Z,11.00
2023-04-13T07:10:21.938Z,11.27
2023-04-13T07:12:49.598Z,9.47
2023-04-13T07:15:17.149Z,15.00
2023-04-13T07:17:44.691Z,11.17
2023-04-13T07:20:12.749Z,9.50
2023-04-13T07:22:40.403Z,15.30
2023-04-13T07:25:08.698Z,10.73
2023-04-13T07:27:36.332Z,9.83
2023-04-13T07:30:04.080Z,11.77
2023-04-13T07:32:31.815Z,12.23
2023-04-13T07:35:02.175Z,9.77
2023-04-13T07:37:30.027Z,9.70
2023-04-13T07:39:57.780Z,10.43
2023-04-13T07:42:25.686Z,12.27
2023-04-13T07:44:58.939Z,9.20
2023-04-13T07:47:26.484Z,8.20
2023-04-13T07:49:54.523Z,7.33
2023-04-13T07:52:22.231Z,10.20
2023-04-13T07:54:50.010Z,8.83
2023-04-13T07:57:21.639Z,7.23
2023-04-13T07:59:49.588Z,6.50
2023-04-13T08:02:18.435Z,10.30
2023-04-13T08:04:46.391Z,5.10
2023-04-13T08:07:14.020Z,5.57
2023-04-13T08:09:42.754Z,9.47
2023-04-13T08:12:10.597Z,7.47
2023-04-13T08:14:38.181Z,7.70
2023-04-13T08:17:06.362Z,5.20
2023-04-13T08:19:34.234Z,6.67
2023-04-13T08:22:02.275Z,5.37
2023-04-13T08:24:29.828Z,6.10
2023-04-13T08:27:00.851Z,6.53
2023-04-13T08:29:29.130Z,4.83
2023-04-13T08:31:58.345Z,4.20
2023-04-13T08:34:26.280Z,5.50
2023-04-13T08:36:55.431Z,4.67
2023-04-13T08:39:23.672Z,6.67
2023-04-13T08:41:51.290Z,6.90
2023-04-13T08:44:18.859Z,4.87
2023-04-13T08:46:47.343Z,5.77
2023-04-13T08:49:14.992Z,4.53
2023-04-13T08:51:44.540Z,6.83
2023-04-13T08:54:14.383Z,5.60
2023-04-13T08:56:46.913Z,5.17
2023-04-13T08:59:16.383Z,7.23
2023-04-13T09:02:24.652Z,6.30
2023-04-13T09:05:00.941Z,6.17
2023-04-13T09:07:34.998Z,5.60
2023-04-13T09:10:06.116Z,4.30
2023-04-13T09:12:35.184Z,6.20
2023-04-13T09:15:05.795Z,8.30
2023-04-13T09:17:34.405Z,6.33
2023-04-13T09:20:21.731Z,3.90
2023-04-13T09:22:52.913Z,2.90
2023-04-13T09:25:25.738Z,4.47
2023-04-13T09:27:53.763Z,4.20
2023-04-13T09:30:25.749Z,4.67
2023-04-13T09:33:10.766Z,3.90
2023-04-13T09:35:39.143Z,4.47
2023-04-13T09:38:07.590Z,3.67
2023-04-13T09:40:38.512Z,4.57
2023-04-13T09:43:08.256Z,3.10
2023-04-13T09:45:40.987Z,4.27
2023-04-13T09:48:20.809Z,4.43
2023-04-13T09:51:00.352Z,3.77
2023-04-13T09:53:31.377Z,4.67
2023-04-13T09:55:59.987Z,6.43
2023-04-13T09:58:28.621Z,5.50
2023-04-13T10:00:56.924Z,5.30
2023-04-13T10:03:24.503Z,5.57
2023-04-13T10:05:59.534Z,5.37
2023-04-13T10:08:37.318Z,6.33
2023-04-13T10:11:08.954Z,5.60
2023-04-13T10:13:52.531Z,5.03
2023-04-13T10:16:47.204Z,8.23
2023-04-13T10:19:20.875Z,6.90
2023-04-13T10:21:50.441Z,7.03
2023-04-13T10:24:20.452Z,5.73
2023-04-13T10:26:48.048Z,7.47
2023-04-13T10:29:16.991Z,8.40
2023-04-13T10:31:49.437Z,9.33
2023-04-13T10:34:28.693Z,9.50
2023-04-13T10:37:00.153Z,7.07
2023-04-13T10:39:30.479Z,7.23
2023-04-13T10:42:02.447Z,9.20
2023-04-13T10:44:48.184Z,11.00
2023-04-13T10:47:17.573Z,6.93
2023-04-13T10:49:49.101Z,6.77
2023-04-13T10:52:17.203Z,7.00
2023-04-13T10:54:45.560Z,6.60
2023-04-13T10:57:13.722Z,6.73
2023-04-13T10:59:59.581Z,9.93
2023-04-13T11:02:33.174Z,9.00
2023-04-13T11:05:01.547Z,6.00
2023-04-13T11:07:29.923Z,7.07
2023-04-13T11:10:03.996Z,5.97
2023-04-13T11:12:32.182Z,6.67
2023-04-13T11:15:00.395Z,7.43
2023-04-13T11:17:28.380Z,8.77
2023-04-13T11:19:57.574Z,7.10
2023-04-13T11:22:28.127Z,6.23
2023-04-13T11:25:08.300Z,7.20
2023-04-13T11:27:35.908Z,6.80
2023-04-13T11:30:09.702Z,7.00
2023-04-13T11:32:41.862Z,6.97
2023-04-13T11:35:11.083Z,5.80
2023-04-13T11:37:42.622Z,5.53
2023-04-13T11:40:15.102Z,6.43
2023-04-13T11:43:01.951Z,4.47
2023-04-13T11:45:30.449Z,7.93
2023-04-13T11:47:58.921Z,4.70
2023-04-13T11:50:27.212Z,7.77
2023-04-13T11:52:56.892Z,5.10
2023-04-13T11:55:26.339Z,6.57
2023-04-13T11:57:55.022Z,4.47
2023-04-13T12:00:26.519Z,4.90
2023-04-13T12:05:30.255Z,3.40
2023-04-13T12:08:00.011Z,3.80
2023-04-13T12:10:39.684Z,2.73
2023-04-13T12:16:01.654Z,4.33
2023-04-13T12:18:37.511Z,3.07
2023-04-13T12:21:06.089Z,4.83
2023-04-13T12:23:33.922Z,3.77
2023-04-13T12:26:32.195Z,2.63
2023-04-13T12:28:58.012Z,2.87
2023-04-13T12:31:25.732Z,3.43
2023-04-13T12:33:53.329Z,2.13
2023-04-13T12:36:21.019Z,2.17
2023-04-13T12:38:48.484Z,3.30
2023-04-13T12:41:16.034Z,3.10
2023-04-13T12:43:43.486Z,2.70
2023-04-13T12:46:11.048Z,4.70
2023-04-13T12:48:38.724Z,2.40
2023-04-13T12:51:06.641Z,3.10
2023-04-13T12:53:36.355Z,3.07
2023-04-13T12:56:04.233Z,3.97
2023-04-13T12:58:32.047Z,8.53
2023-04-13T13:00:59.538Z,5.60
2023-04-13T13:03:27.407Z,3.07
2023-04-13T13:05:54.988Z,2.70
2023-04-13T13:08:22.581Z,3.50
2023-04-13T13:10:50.119Z,1.60
2023-04-13T13:13:18.939Z,2.30
2023-04-13T13:15:46.584Z,1.50
2023-04-13T13:18:14.630Z,2.10
2023-04-13T13:20:42.140Z,2.00
2023-04-13T13:23:11.977Z,2.03
2023-04-13T13:25:44.070Z,2.60
2023-04-13T13:28:20.314Z,14.23
2023-04-13T13:30:47.789Z,3.10
2023-04-13T13:33:15.589Z,3.60
2023-04-13T13:35:43.161Z,2.93
2023-04-13T13:38:10.985Z,3.60
2023-04-13T13:40:38.478Z,2.27
2023-04-13T13:43:06.112Z,3.73
2023-04-13T13:45:33.642Z,2.43
2023-04-13T13:48:01.285Z,2.43
2023-04-13T13:50:28.854Z,2.10
2023-04-13T13:53:03.744Z,2.50
2023-04-13T13:55:32.587Z,2.67
2023-04-13T13:58:00.143Z,3.90
2023-04-13T14:00:27.849Z,3.37
2023-04-13T14:02:55.705Z,3.77
2023-04-13T14:05:23.543Z,3.33
2023-04-13T14:07:51.598Z,4.60
2023-04-13T14:10:19.212Z,5.50
2023-04-13T14:12:50.266Z,4.07
2023-04-13T14:15:19.099Z,3.90
2023-04-13T14:17:55.864Z,4.50
2023-04-13T14:20:35.665Z,4.30
2023-04-13T14:23:03.593Z,4.13
2023-04-13T14:25:31.567Z,4.07
2023-04-13T14:27:59.093Z,3.07
2023-04-13T14:30:28.097Z,5.70
2023-04-13T14:32:56.808Z,3.30
2023-04-13T14:35:25.069Z,3.10
2023-04-13T14:37:53.018Z,3.30
2023-04-13T14:40:23.562Z,2.70
2023-04-13T14:42:54.532Z,3.03
2023-04-13T14:45:22.401Z,2.90
2023-04-13T14:47:50.378Z,2.33
2023-04-13T14:50:18.357Z,2.43
2023-04-13T14:52:46.812Z,2.13
2023-04-13T14:55:15.871Z,1.60
2023-04-13T14:57:43.586Z,1.40
2023-04-13T15:00:22.420Z,1.43
2023-04-13T15:02:52.928Z,1.30
2023-04-13T15:05:21.366Z,1.70
2023-04-13T15:07:51.241Z,1.50
2023-04-13T15:10:19.462Z,5.50
2023-04-13T15:12:48.485Z,2.13
2023-04-13T15:15:16.137Z,2.17
2023-04-13T15:17:43.834Z,2.50
2023-04-13T15:20:12.307Z,2.00
2023-04-13T15:22:39.845Z,1.50
2023-04-13T15:25:07.807Z,1.30
2023-04-13T15:27:35.350Z,1.73
2023-04-13T15:30:04.307Z,1.40
2023-04-13T15:32:34.988Z,1.63
2023-04-13T15:35:02.924Z,3.10
2023-04-13T15:37:30.500Z,1.30
2023-04-13T15:39:58.143Z,3.00
2023-04-13T15:42:26.457Z,2.50
2023-04-13T15:44:55.417Z,1.50
2023-04-13T15:47:23.044Z,2.13
2023-04-13T15:49:50.715Z,2.00
2023-04-13T15:52:18.280Z,1.50
2023-04-13T15:54:46.171Z,1.10
2023-04-13T15:57:14.516Z,1.30
2023-04-13T15:59:42.422Z,1.30
2023-04-13T16:02:10.307Z,2.40
2023-04-13T16:04:38.026Z,2.33
2023-04-13T16:07:13.795Z,2.00
2023-04-13T16:09:44.653Z,1.23
2023-04-13T16:12:12.543Z,1.60
2023-04-13T16:14:45.366Z,1.20
2023-04-13T16:17:15.212Z,2.47
2023-04-13T16:19:47.057Z,5.43
2023-04-13T16:22:14.834Z,1.87
2023-04-13T16:24:42.283Z,8.80
2023-04-13T16:27:10.459Z,3.37
2023-04-13T16:29:38.010Z,2.87
2023-04-13T16:32:08.834Z,4.60
2023-04-13T16:34:36.327Z,4.17
2023-04-13T16:37:04.657Z,2.60
2023-04-13T16:39:32.396Z,4.30
2023-04-13T16:41:59.884Z,2.20
2023-04-13T16:44:27.388Z,3.17
2023-04-13T16:46:55.002Z,2.97
2023-04-13T16:49:22.595Z,12.60
2023-04-13T16:51:50.153Z,4.47
2023-04-13T16:54:18.447Z,3.30
2023-04-13T16:56:46.499Z,3.97
2023-04-13T16:59:14.018Z,6.47
2023-04-13T17:01:41.564Z,6.37
2023-04-13T17:04:09.267Z,4.40
2023-04-13T17:06:38.136Z,8.10
2023-04-13T17:09:06.378Z,17.03
2023-04-13T17:11:34.231Z,9.90
2023-04-13T17:14:01.996Z,6.33
2023-04-13T17:16:29.812Z,7.80
2023-04-13T17:18:57.856Z,6.03
2023-04-13T17:21:25.674Z,6.07
2023-04-13T17:23:53.208Z,5.03
2023-04-13T17:26:20.876Z,4.63
2023-04-13T17:28:48.408Z,8.20
2023-04-13T17:31:16.877Z,9.40
2023-04-13T17:33:45.416Z,3.10
2023-04-13T17:36:12.995Z,9.03
2023-04-13T17:38:40.677Z,6.97
2023-04-13T17:41:11.500Z,5.27
2023-04-13T17:43:40.653Z,6.23
2023-04-13T17:46:08.705Z,9.87
2023-04-13T17:48:36.361Z,10.20
2023-04-13T17:51:03.915Z,3.63
2023-04-13T17:53:31.522Z,5.50
2023-04-13T17:55:59.120Z,7.07
2023-04-13T17:58:26.913Z,5.17
2023-04-13T18:00:54.456Z,9.50
2023-04-13T18:03:22.176Z,6.93
2023-04-13T18:05:49.821Z,5.47
2023-04-13T18:08:17.516Z,17.83
2023-04-13T18:10:45.038Z,5.73
2023-04-13T18:13:12.842Z,9.00
2023-04-13T18:15:40.584Z,4.00
2023-04-13T18:18:08.258Z,7.90
2023-04-13T18:20:35.754Z,5.50
2023-04-13T18:23:03.233Z,7.63
2023-04-13T18:25:31.293Z,10.70
2023-04-13T18:27:58.786Z,3.90
2023-04-13T18:30:26.411Z,12.83
2023-04-13T18:32:54.963Z,6.93
2023-04-13T18:35:22.555Z,5.00
2023-04-13T18:37:50.200Z,8.17
2023-04-13T18:40:17.756Z,10.37
2023-04-13T18:42:47.742Z,9.03
2023-04-13T18:45:15.314Z,8.20
2023-04-13T18:47:43.674Z,4.47
2023-04-13T18:50:11.967Z,4.93
2023-04-13T18:52:39.584Z,3.87
2023-04-13T18:55:07.459Z,14.60
2023-04-13T18:57:35.048Z,4.67
2023-04-13T19:00:02.637Z,11.03
2023-04-13T19:02:30.470Z,8.93
2023-04-13T19:04:59.000Z,10.10
2023-04-13T19:07:28.008Z,5.43
2023-04-13T19:09:55.613Z,3.87
2023-04-13T19:12:23.764Z,6.80
2023-04-13T19:14:51.507Z,10.13
2023-04-13T19:17:21.204Z,7.30
2023-04-13T19:19:49.034Z,12.73
2023-04-13T19:22:16.616Z,5.83
2023-04-13T19:24:44.208Z,6.20
2023-04-13T19:27:11.977Z,12.40
2023-04-13T19:29:42.536Z,8.00
2023-04-13T19:32:12.764Z,4.30
2023-04-13T19:34:40.536Z,6.50
2023-04-13T19:37:08.202Z,2.70
2023-04-13T19:39:35.781Z,7.50
2023-04-13T19:42:03.377Z,7.07
2023-04-13T19:44:31.141Z,7.57
2023-04-13T19:46:58.705Z,9.73
2023-04-13T19:49:27.084Z,10.70
2023-04-13T19:51:54.820Z,3.50
2023-04-13T19:54:22.387Z,8.57
2023-04-13T19:56:49.919Z,4.73
2023-04-13T19:59:18.020Z,5.33
2023-04-13T20:01:46.621Z,3.70
2023-04-13T20:04:14.418Z,6.90
2023-04-13T20:06:41.984Z,7.53
2023-04-13T20:09:14.184Z,4.67
2023-04-13T20:11:42.112Z,5.33
2023-04-13T20:14:13.049Z,6.27
2023-04-13T20:16:40.904Z,5.03
2023-04-13T20:19:09.697Z,9.80
2023-04-13T20:21:38.246Z,3.23
2023-04-13T20:24:05.969Z,4.10
2023-04-13T20:26:33.690Z,9.47
2023-04-13T20:29:03.055Z,6.43
2023-04-13T20:31:32.001Z,9.67
2023-04-13T20:34:00.070Z,6.43
2023-04-13T20:36:27.976Z,4.20
2023-04-13T20:38:59.808Z,6.33
2023-04-13T20:41:30.120Z,11.83
2023-04-13T20:43:59.069Z,4.07
2023-04-13T20:46:34.583Z,6.40
2023-04-13T20:49:05.049Z,6.20
2023-04-13T20:51:33.815Z,3.77
2023-04-13T20:54:03.254Z,5.80
2023-04-13T20:56:31.145Z,6.10
2023-04-13T20:58:59.189Z,5.37
2023-04-13T21:01:26.745Z,8.60
2023-04-13T21:03:54.263Z,7.37
2023-04-13T21:06:23.040Z,5.43
2023-04-13T21:08:52.967Z,9.50
2023-04-13T21:11:21.568Z,4.63
2023-04-13T21:13:49.113Z,5.37
2023-04-13T21:16:16.678Z,8.57
2023-04-13T21:18:44.343Z,2.63
2023-04-13T21:21:12.256Z,4.30
2023-04-13T21:23:39.762Z,3.30
2023-04-13T21:26:07.653Z,3.83
2023-04-13T21:28:35.417Z,6.50
2023-04-13T21:31:02.931Z,3.83
2023-04-13T21:33:30.725Z,4.10
2023-04-13T21:36:50.951Z,2.57
2023-04-13T21:38:45.730Z,5.23
2023-04-13T21:41:17.017Z,7.27
2023-04-13T21:43:44.706Z,6.47
2023-04-13T21:46:13.579Z,3.03
2023-04-13T21:48:41.443Z,3.60
2023-04-13T21:51:10.160Z,5.83
2023-04-13T21:53:38.764Z,5.87
2023-04-13T21:56:06.724Z,4.50
2023-04-13T21:58:46.953Z,5.73
2023-04-13T22:01:15.200Z,2.97
2023-04-13T22:03:46.469Z,4.23
2023-04-13T22:06:14.837Z,7.10
2023-04-13T22:08:42.445Z,9.00
2023-04-13T22:11:10.209Z,3.23
2023-04-13T22:13:37.834Z,4.87
2023-04-13T22:16:05.670Z,2.60
2023-04-13T22:18:33.230Z,4.43
2023-04-13T22:21:01.105Z,2.50
2023-04-13T22:23:29.398Z,4.57
2023-04-13T22:26:03.843Z,3.03
2023-04-13T22:28:32.279Z,2.63
2023-04-13T22:31:07.302Z,5.57
2023-04-13T22:33:38.345Z,5.57
2023-04-13T22:36:06.999Z,3.90
2023-04-13T22:38:34.490Z,5.30
2023-04-13T22:41:07.122Z,2.77
2023-04-13T22:43:34.664Z,3.30
2023-04-13T22:46:02.455Z,2.90
2023-04-13T22:48:30.481Z,2.80
2023-04-13T22:51:01.111Z,2.30
2023-04-13T22:53:28.891Z,2.40
2023-04-13T22:55:56.555Z,2.60
2023-04-13T22:58:24.107Z,4.10
2023-04-13T23:00:51.592Z,7.50
2023-04-13T23:03:19.537Z,13.83
2023-04-13T23:05:47.180Z,3.87
2023-04-13T23:08:14.916Z,2.53
2023-04-13T23:10:42.509Z,9.80
2023-04-13T23:13:10.008Z,3.70
2023-04-13T23:15:37.566Z,3.47
2023-04-13T23:18:05.687Z,9.03
2023-04-13T23:20:33.618Z,8.80
2023-04-13T23:23:01.586Z,3.20
2023-04-13T23:25:29.260Z,7.90
2023-04-13T23:27:56.761Z,2.80
2023-04-13T23:30:24.307Z,3.13
2023-04-13T23:32:52.265Z,3.37
2023-04-13T23:35:19.792Z,3.70
2023-04-13T23:37:47.310Z,3.07
2023-04-13T23:40:14.915Z,3.20
2023-04-13T23:42:42.556Z,3.07
2023-04-13T23:45:10.572Z,5.33
2023-04-13T23:47:38.256Z,4.27
2023-04-13T23:50:06.416Z,2.80
2023-04-13T23:52:34.345Z,4.00
2023-04-13T23:55:01.949Z,3.47
2023-04-13T23:57:34.555Z,7.40
